Time;durP1;ratioP1;P1;durP2;ratioP2;P2;SDS_P1;SDS_P2;PMS_P1;PMS_P2;Temp;Humidity;BMP_temperature;BMP_pressure;BME280_temperature;BME280_humidity;BME280_pressure;Samples;Min_cycle;Max_cycle;Signal;HPM_P1;HPM_P2
2022/02/22 00:02:08;;;;;;;14.50;7.12;;;;;;;6.56;88.63;143873.11;1729938;81;21007;-58
2022/02/22 00:04:36;;;;;;;12.90;6.70;;;;;;;6.52;88.80;143863.14;1726574;83;21043;-61
2022/02/22 00:07:05;;;;;;;11.63;6.10;;;;;;;6.46;88.92;143849.41;1714292;83;21044;-58
2022/02/22 00:09:33;;;;;;;9.73;6.08;;;;;;;6.37;89.20;143825.64;1713177;83;21020;-59
2022/02/22 00:12:01;;;;;;;11.38;6.47;;;;;;;6.31;89.43;143811.91;1714476;83;21010;-56
2022/02/22 00:14:28;;;;;;;13.00;6.10;;;;;;;6.25;89.75;143796.87;1719412;82;20986;-58
2022/02/22 00:16:55;;;;;;;10.70;5.92;;;;;;;6.24;89.95;143795.64;1719374;83;21038;-57
2022/02/22 00:19:25;;;;;;;9.98;5.60;;;;;;;6.21;90.08;143786.91;1719135;83;21077;-55
2022/02/22 00:21:54;;;;;;;10.72;6.17;;;;;;;6.20;90.15;143785.62;1718877;82;21579;-56
2022/02/22 00:24:22;;;;;;;8.43;5.55;;;;;;;6.19;90.23;143783.14;1690498;83;21578;-59
2022/02/22 00:26:49;;;;;;;11.05;6.72;;;;;;;6.18;90.19;143779.38;1694932;83;21562;-59
2022/02/22 00:29:16;;;;;;;10.43;5.50;;;;;;;6.15;90.28;143771.89;1719181;83;21030;-61
2022/02/22 00:31:42;;;;;;;9.83;5.65;;;;;;;6.14;90.44;143770.64;1719418;83;21005;-59
2022/02/22 00:34:11;;;;;;;11.18;5.53;;;;;;;6.17;90.47;143778.13;1714158;82;21502;-59
2022/02/22 00:36:37;;;;;;;10.60;6.22;;;;;;;6.19;90.51;143783.14;1713572;84;21017;-60
2022/02/22 00:39:05;;;;;;;9.90;5.90;;;;;;;6.19;90.39;143783.14;1713196;82;21040;-59
2022/02/22 00:41:32;;;;;;;10.10;5.92;;;;;;;6.20;90.46;143785.62;1713540;84;21004;-57
2022/02/22 00:43:59;;;;;;;8.88;5.58;;;;;;;6.21;90.22;143788.16;1716626;83;20995;-60
2022/02/22 00:46:25;;;;;;;9.25;5.15;;;;;;;6.18;90.15;143779.38;1719393;82;20979;-59
2022/02/22 00:48:52;;;;;;;10.05;5.47;;;;;;;6.13;90.16;143766.87;1719220;82;21578;-59
2022/02/22 00:51:18;;;;;;;9.88;5.33;;;;;;;6.10;90.31;143760.63;1717232;83;21036;-59
2022/02/22 00:53:45;;;;;;;10.32;5.03;;;;;;;6.05;90.48;143749.38;1713186;82;21048;-57
2022/02/22 00:56:11;;;;;;;12.75;6.22;;;;;;;6.08;90.53;143755.62;1713251;84;20996;-56
2022/02/22 00:58:38;;;;;;;8.63;5.45;;;;;;;6.12;90.51;143765.64;1713229;84;21024;-59
2022/02/22 01:01:05;;;;;;;10.85;5.12;;;;;;;6.13;90.42;143766.87;1713812;82;21053;-61
2022/02/22 01:03:32;;;;;;;8.28;4.95;;;;;;;6.10;90.49;143760.63;1719056;83;21042;-61
2022/02/22 01:05:59;;;;;;;11.45;6.00;;;;;;;6.10;90.41;143760.63;1719078;82;21050;-54
2022/02/22 01:08:25;;;;;;;10.13;5.60;;;;;;;6.10;90.30;143760.63;1718309;82;21122;-56
2022/02/22 01:10:52;;;;;;;12.15;5.78;;;;;;;6.09;90.26;143759.39;1713191;83;21036;-56
2022/02/22 01:13:21;;;;;;;11.12;5.85;;;;;;;6.09;90.27;143758.16;1713165;84;21001;-59
2022/02/22 01:15:48;;;;;;;13.08;6.60;;;;;;;6.11;90.32;143761.88;1713169;84;21515;-55
2022/02/22 01:18:17;;;;;;;10.75;6.00;;;;;;;6.12;90.33;143765.64;1717609;83;21026;-56
2022/02/22 01:20:44;;;;;;;10.45;5.53;;;;;;;6.12;90.27;143764.41;1719230;82;21560;-62
2022/02/22 01:23:10;;;;;;;8.08;4.72;;;;;;;6.09;90.37;143758.16;1719138;83;21042;-60
2022/02/22 01:25:37;;;;;;;7.55;4.95;;;;;;;6.07;90.33;143754.38;1719213;83;21002;-53
2022/02/22 01:28:05;;;;;;;8.98;4.75;;;;;;;6.02;90.41;143741.89;1715699;83;21117;-60
2022/02/22 01:30:31;;;;;;;10.00;5.58;;;;;;;5.99;90.51;143733.16;1713479;82;21064;-60
2022/02/22 01:32:58;;;;;;;8.45;4.85;;;;;;;5.93;90.74;143718.09;1713200;83;21025;-62
2022/02/22 01:35:25;;;;;;;9.43;5.10;;;;;;;5.91;90.91;143713.13;1713143;82;21044;-58
2022/02/22 01:37:52;;;;;;;9.53;6.05;;;;;;;5.93;91.10;143718.09;1714925;83;20994;-58
2022/02/22 01:40:19;;;;;;;9.43;5.33;;;;;;;5.98;91.12;143730.63;1719059;82;21235;-54
2022/02/22 01:42:46;;;;;;;10.35;5.45;;;;;;;6.02;91.08;143740.66;1719262;83;21377;-60
2022/02/22 01:45:13;;;;;;;13.98;6.25;;;;;;;6.05;90.99;143748.14;1719309;83;21019;-56
2022/02/22 01:47:39;;;;;;;12.18;7.37;;;;;;;6.06;90.86;143750.66;1719137;83;21548;-56
2022/02/22 01:50:08;;;;;;;14.38;8.28;;;;;;;6.05;90.80;143748.14;1713410;83;21004;-57
2022/02/22 01:52:34;;;;;;;16.82;9.28;;;;;;;6.02;90.83;143740.66;1690760;85;21192;-56
2022/02/22 01:55:01;;;;;;;16.10;8.73;;;;;;;5.97;90.97;143728.16;1690581;83;21005;-55
2022/02/22 01:57:28;;;;;;;13.68;7.97;;;;;;;5.94;91.19;143721.91;1712466;82;21048;-54
2022/02/22 01:59:54;;;;;;;10.65;7.08;;;;;;;5.94;91.53;143720.67;1713672;83;21008;-60
2022/02/22 02:02:21;;;;;;;14.73;8.40;;;;;;;5.94;91.72;143720.67;1713558;84;21084;-59
2022/02/22 02:04:47;;;;;;;15.15;9.10;;;;;;;5.97;91.86;143728.16;1713431;84;21036;-58
2022/02/22 02:07:14;;;;;;;15.43;8.60;;;;;;;5.98;91.90;143730.63;1716993;83;21015;-59
2022/02/22 02:09:41;;;;;;;13.93;7.22;;;;;;;5.97;92.00;143729.39;1719289;83;21002;-58
2022/02/22 02:12:08;;;;;;;11.15;6.28;;;;;;;5.99;92.00;143733.16;1719496;83;21014;-55
2022/02/22 02:14:34;;;;;;;10.63;6.65;;;;;;;6.01;92.05;143738.17;1714168;82;21103;-56
2022/02/22 02:17:01;;;;;;;10.48;5.97;;;;;;;6.03;92.14;143743.13;1713429;82;21534;-56
2022/02/22 02:19:27;;;;;;;10.30;6.45;;;;;;;6.04;92.22;143745.66;1713269;84;21055;-57
2022/02/22 02:21:59;;;;;;;10.48;6.75;;;;;;;6.06;92.21;143750.66;1713395;84;21056;-61
2022/02/22 02:24:28;;;;;;;15.13;8.05;;;;;;;6.08;92.29;143755.62;1717385;83;21002;-55
2022/02/22 02:26:56;;;;;;;15.15;8.35;;;;;;;6.09;92.21;143759.39;1719169;82;21062;-60
2022/02/22 02:29:27;;;;;;;17.00;7.80;;;;;;;6.11;92.13;143763.16;1719114;83;21488;-60
2022/02/22 02:31:56;;;;;;;14.30;8.43;;;;;;;6.09;92.02;143758.16;1713545;84;21015;-58
2022/02/22 02:34:29;;;;;;;16.55;7.55;;;;;;;6.10;92.08;143760.63;1713563;84;21467;-56
2022/02/22 02:36:56;;;;;;;13.58;7.15;;;;;;;6.09;92.07;143758.16;1713303;84;21025;-58
2022/02/22 02:39:23;;;;;;;13.58;7.40;;;;;;;6.09;92.15;143758.16;1713464;83;21052;-58
2022/02/22 02:41:50;;;;;;;12.98;7.05;;;;;;;6.14;92.16;143769.41;1719468;82;21564;-59
2022/02/22 02:44:20;;;;;;;12.88;7.45;;;;;;;6.13;92.03;143768.17;1716118;82;21016;-55
2022/02/22 02:46:47;;;;;;;12.28;7.85;;;;;;;6.10;91.96;143760.63;1713652;82;21056;-58
2022/02/22 02:49:17;;;;;;;15.23;9.23;;;;;;;6.10;92.08;143760.63;1713448;83;21016;-60
2022/02/22 02:51:45;;;;;;;12.60;7.53;;;;;;;6.07;92.09;143753.14;1719401;83;21026;-56
2022/02/22 02:54:12;;;;;;;12.95;8.03;;;;;;;6.05;92.24;143748.14;1719406;83;21075;-56
2022/02/22 02:56:40;;;;;;;14.68;7.80;;;;;;;6.07;92.41;143753.14;1719235;83;21057;-58
2022/02/22 02:59:10;;;;;;;13.08;8.10;;;;;;;6.08;92.40;143755.62;1719413;82;21535;-58
2022/02/22 03:01:38;;;;;;;13.40;8.50;;;;;;;6.08;92.31;143756.91;1714348;82;21071;-60
2022/02/22 03:04:05;;;;;;;12.98;7.92;;;;;;;6.11;92.29;143761.88;1713522;84;21093;-62
2022/02/22 03:06:33;;;;;;;15.53;8.18;;;;;;;6.09;92.17;143758.16;1713202;82;21040;-56
2022/02/22 03:09:00;;;;;;;12.07;7.92;;;;;;;6.04;92.27;143746.89;1713328;84;21008;-60
2022/02/22 03:11:27;;;;;;;13.53;8.18;;;;;;;6.01;92.34;143738.17;1716922;83;21062;-62
2022/02/22 03:13:54;;;;;;;13.72;7.72;;;;;;;6.00;92.52;143735.64;1719401;82;21018;-59
2022/02/22 03:16:20;;;;;;;15.68;7.92;;;;;;;6.01;92.53;143738.17;1719090;83;21045;-60
2022/02/22 03:18:47;;;;;;;13.55;8.68;;;;;;;5.99;92.47;143734.41;1716143;82;21028;-55
2022/02/22 03:21:14;;;;;;;16.77;8.58;;;;;;;5.96;92.48;143725.67;1713263;84;21036;-56
2022/02/22 03:23:41;;;;;;;15.88;8.50;;;;;;;5.87;92.48;143704.36;1713494;82;21072;-62
2022/02/22 03:26:08;;;;;;;15.13;9.50;;;;;;;5.83;92.75;143694.39;1713511;84;21028;-60
2022/02/22 03:28:36;;;;;;;16.87;9.53;;;;;;;5.78;92.96;143683.14;1715170;82;21026;-58
2022/02/22 03:31:03;;;;;;;14.90;8.83;;;;;;;5.80;93.22;143688.16;1719428;82;21002;-60
2022/02/22 03:33:32;;;;;;;18.07;10.23;;;;;;;5.83;93.26;143695.63;1719452;83;21002;-58
2022/02/22 03:36:00;;;;;;;17.67;9.65;;;;;;;5.87;93.17;143704.36;1719494;82;21073;-62
2022/02/22 03:38:26;;;;;;;16.80;9.50;;;;;;;5.86;93.01;143703.13;1718547;82;21057;-61
2022/02/22 03:40:53;;;;;;;17.17;9.48;;;;;;;5.84;93.00;143698.11;1713506;84;20992;-58
2022/02/22 03:43:20;;;;;;;15.93;8.75;;;;;;;5.81;93.11;143690.62;1713487;82;21510;-60
2022/02/22 03:45:46;;;;;;;16.77;10.13;;;;;;;5.79;93.17;143684.38;1713295;84;21115;-61
2022/02/22 03:48:13;;;;;;;18.15;9.33;;;;;;;5.81;93.27;143689.37;1714322;83;20958;-59
2022/02/22 03:50:40;;;;;;;17.48;9.28;;;;;;;5.85;93.23;143700.64;1719383;82;21054;-55
2022/02/22 03:53:06;;;;;;;18.92;9.75;;;;;;;5.84;93.10;143698.11;1719415;82;21049;-56
2022/02/22 03:55:33;;;;;;;16.70;9.23;;;;;;;5.84;93.03;143698.11;1719111;82;21074;-60
2022/02/22 03:58:01;;;;;;;16.57;10.13;;;;;;;5.81;92.99;143690.62;1719374;83;21038;-60
2022/02/22 04:00:28;;;;;;;16.07;9.05;;;;;;;5.79;92.98;143685.63;1713532;82;21545;-57
2022/02/22 04:02:55;;;;;;;21.42;9.45;;;;;;;5.74;93.05;143673.13;1713489;84;21072;-56
2022/02/22 04:05:22;;;;;;;16.82;10.05;;;;;;;5.75;93.22;143674.38;1713295;84;21044;-58
2022/02/22 04:07:51;;;;;;;17.02;9.10;;;;;;;5.77;93.20;143680.61;1713144;82;21134;-57
2022/02/22 04:10:18;;;;;;;18.55;9.58;;;;;;;5.78;93.06;143683.14;1717873;83;21034;-56
2022/02/22 04:12:45;;;;;;;17.62;10.05;;;;;;;5.77;93.00;143680.61;1719259;82;21070;-57
2022/02/22 04:15:13;;;;;;;18.98;10.10;;;;;;;5.73;92.93;143670.66;1719195;83;21058;-57
2022/02/22 04:17:40;;;;;;;16.27;8.98;;;;;;;5.69;93.04;143660.64;1719346;83;21026;-55
2022/02/22 04:20:10;;;;;;;15.78;9.28;;;;;;;5.64;93.09;143649.38;1716206;82;21076;-58
2022/02/22 04:22:38;;;;;;;14.80;9.28;;;;;;;5.64;93.26;143648.14;1713487;83;21004;-60
2022/02/22 04:25:06;;;;;;;17.30;9.78;;;;;;;5.62;93.31;143643.14;1713186;84;21028;-57
2022/02/22 04:27:33;;;;;;;13.90;8.78;;;;;;;5.59;93.34;143635.66;1716329;82;21033;-58
2022/02/22 04:30:00;;;;;;;20.17;9.88;;;;;;;5.60;93.36;143638.19;1719164;82;21042;-59
2022/02/22 04:32:27;;;;;;;17.75;10.03;;;;;;;5.57;93.37;143630.66;1719352;83;21061;-60
2022/02/22 04:34:54;;;;;;;16.30;9.45;;;;;;;5.55;93.43;143625.69;1719100;83;21032;-60
2022/02/22 04:37:20;;;;;;;13.88;9.23;;;;;;;5.49;93.41;143611.92;1714664;82;21008;-58
2022/02/22 04:39:54;;;;;;;14.38;9.35;;;;;;;5.42;93.43;143595.70;1713197;82;21062;-57
2022/02/22 04:42:22;;;;;;;18.82;9.38;;;;;;;5.39;93.78;143588.22;1713537;82;21032;-56
2022/02/22 04:44:49;;;;;;;17.52;9.63;;;;;;;5.40;93.91;143589.47;1713201;84;21076;-56
2022/02/22 04:47:16;;;;;;;17.00;9.95;;;;;;;5.41;94.00;143593.19;1713736;82;21029;-57
2022/02/22 04:49:42;;;;;;;15.88;10.05;;;;;;;5.47;93.97;143605.67;1713432;84;21602;-57
2022/02/22 04:52:09;;;;;;;16.82;9.93;;;;;;;5.48;93.89;143608.19;1713583;82;21009;-56
2022/02/22 04:54:38;;;;;;;18.32;11.05;;;;;;;5.49;93.83;143610.67;1716154;83;21294;-60
2022/02/22 04:57:05;;;;;;;16.42;9.60;;;;;;;5.48;93.71;143609.44;1719391;83;21002;-59
2022/02/22 04:59:33;;;;;;;16.52;9.60;;;;;;;5.46;93.70;143604.44;1719420;83;21022;-61
2022/02/22 05:02:01;;;;;;;17.25;9.88;;;;;;;5.45;93.72;143601.95;1719375;82;21034;-59
2022/02/22 05:04:27;;;;;;;18.95;10.08;;;;;;;5.46;93.85;143603.19;1716919;82;21072;-56
2022/02/22 05:06:55;;;;;;;18.98;10.82;;;;;;;5.51;93.79;143615.69;1713283;83;21060;-59
2022/02/22 05:09:22;;;;;;;17.32;10.50;;;;;;;5.53;93.57;143620.69;1713155;82;21076;-61
2022/02/22 05:11:48;;;;;;;16.48;10.05;;;;;;;5.51;93.54;143615.69;1713339;84;21068;-56
2022/02/22 05:14:15;;;;;;;18.82;10.78;;;;;;;5.52;93.50;143618.16;1713827;83;21514;-58
2022/02/22 05:16:42;;;;;;;18.60;10.43;;;;;;;5.52;93.33;143618.16;1695209;83;21048;-57
2022/02/22 05:19:08;;;;;;;17.37;10.30;;;;;;;5.47;93.21;143605.67;1717902;83;21066;-58
2022/02/22 05:21:36;;;;;;;17.73;10.60;;;;;;;5.42;93.11;143595.70;1719328;82;21080;-57
2022/02/22 05:24:04;;;;;;;18.15;11.63;;;;;;;5.39;93.23;143586.94;1718701;82;21026;-61
2022/02/22 05:26:30;;;;;;;20.55;10.80;;;;;;;5.36;93.15;143580.69;1716845;82;21062;-58
2022/02/22 05:28:57;;;;;;;18.77;11.43;;;;;;;5.31;93.34;143566.97;1719330;83;21057;-59
2022/02/22 05:31:24;;;;;;;21.50;11.20;;;;;;;5.32;93.36;143570.73;1719457;82;21062;-57
2022/02/22 05:33:51;;;;;;;19.82;11.28;;;;;;;5.34;93.50;143574.45;1719091;83;21050;-57
2022/02/22 05:36:21;;;;;;;21.33;11.68;;;;;;;5.37;93.46;143581.98;1717356;82;21012;-61
2022/02/22 05:38:48;;;;;;;19.67;11.70;;;;;;;5.39;93.38;143588.22;1713412;83;21032;-60
2022/02/22 05:41:17;;;;;;;18.52;10.93;;;;;;;5.41;93.34;143593.19;1713412;84;21020;-62
2022/02/22 05:43:48;;;;;;;19.77;11.28;;;;;;;5.40;93.16;143590.70;1715321;82;20977;-60
2022/02/22 05:46:16;;;;;;;20.05;11.78;;;;;;;5.38;93.19;143585.70;1719388;82;21057;-61
2022/02/22 05:48:43;;;;;;;20.17;12.03;;;;;;;5.39;93.16;143588.22;1719430;82;21037;-61
2022/02/22 05:51:10;;;;;;;21.27;12.35;;;;;;;5.45;93.17;143601.95;1719378;83;20967;-60
2022/02/22 05:53:39;;;;;;;21.07;12.40;;;;;;;5.51;93.10;143615.69;1719371;83;21517;-61
2022/02/22 05:56:05;;;;;;;21.48;13.53;;;;;;;5.57;92.94;143630.66;1719258;83;21071;-61
2022/02/22 05:58:33;;;;;;;20.65;13.13;;;;;;;5.61;92.67;143640.66;1718077;83;21103;-59
2022/02/22 06:00:59;;;;;;;19.65;12.93;;;;;;;5.63;92.54;143646.91;1719303;83;21081;-58
2022/02/22 06:03:26;;;;;;;23.50;13.30;;;;;;;5.66;92.22;143653.16;1719116;82;21073;-61
2022/02/22 06:05:53;;;;;;;23.42;14.25;;;;;;;5.66;92.03;143654.39;1714305;83;21028;-61
2022/02/22 06:08:20;;;;;;;24.10;13.65;;;;;;;5.68;91.80;143656.92;1713177;82;21542;-56
2022/02/22 06:10:48;;;;;;;21.93;13.75;;;;;;;5.68;91.70;143656.92;1713137;84;21071;-60
2022/02/22 06:13:15;;;;;;;24.00;14.13;;;;;;;5.70;91.64;143661.87;1713437;84;21000;-61
2022/02/22 06:15:42;;;;;;;23.40;13.70;;;;;;;5.78;91.34;143681.91;1717114;82;21018;-64
2022/02/22 06:18:08;;;;;;;23.98;14.03;;;;;;;5.83;90.99;143695.63;1719154;82;21018;-59
2022/02/22 06:20:36;;;;;;;23.98;13.72;;;;;;;5.87;90.56;143705.59;1719185;82;21508;-62
2022/02/22 06:23:03;;;;;;;24.82;14.38;;;;;;;5.87;90.15;143705.59;1719186;82;21050;-63
2022/02/22 06:25:30;;;;;;;17.32;11.50;;;;;;;5.87;89.95;143704.36;1717354;82;21067;-59
2022/02/22 06:27:58;;;;;;;23.30;12.47;;;;;;;5.91;89.70;143713.13;1717022;82;21589;-63
2022/02/22 06:30:26;;;;;;;22.73;11.25;;;;;;;5.98;89.28;143730.63;1715712;83;21032;-60
2022/02/22 06:32:54;;;;;;;21.42;11.38;;;;;;;6.07;88.93;143754.38;1718958;83;21016;-57
2022/02/22 06:35:22;;;;;;;19.00;11.38;;;;;;;6.21;88.47;143788.16;1718854;82;21510;-57
2022/02/22 06:37:50;;;;;;;20.20;11.73;;;;;;;6.42;87.71;143839.38;1719409;82;21064;-60
2022/02/22 06:40:17;;;;;;;25.43;14.65;;;;;;;6.62;86.60;143888.14;1719142;83;21089;-57
2022/02/22 06:42:44;;;;;;;27.67;14.25;;;;;;;6.85;85.87;143944.41;1719139;82;21074;-58
2022/02/22 06:45:12;;;;;;;21.48;12.93;;;;;;;7.06;84.58;143995.66;1719350;83;21042;-57
2022/02/22 06:47:41;;;;;;;22.90;14.78;;;;;;;8.08;83.46;144243.41;1713710;82;21103;-58
2022/02/22 06:50:11;;;;;;;21.20;13.00;;;;;;;8.52;80.71;144352.34;1713565;84;21027;-61
2022/02/22 06:52:39;;;;;;;22.30;13.03;;;;;;;8.72;78.18;144399.94;1713421;83;21036;-55
2022/02/22 06:55:13;;;;;;;20.88;13.58;;;;;;;8.80;76.67;144421.25;1713255;82;21115;-60
2022/02/22 06:57:40;;;;;;;22.55;13.45;;;;;;;9.27;75.40;144536.48;1717328;83;21104;-59
2022/02/22 07:00:11;;;;;;;21.42;12.98;;;;;;;9.71;73.55;144643.00;1715378;83;21111;-58
2022/02/22 07:02:39;;;;;;;28.38;11.65;;;;;;;10.77;69.29;144903.86;1715689;83;21068;-59
2022/02/22 07:05:09;;;;;;;18.75;11.43;;;;;;;11.58;67.89;145100.89;1715217;83;21098;-61
2022/02/22 07:07:38;;;;;;;22.65;12.23;;;;;;;13.75;62.34;145633.66;1718096;82;21062;-58
2022/02/22 07:10:07;;;;;;;18.87;11.97;;;;;;;15.17;57.03;145983.44;1718310;83;21069;-55
2022/02/22 07:12:35;;;;;;;18.07;10.13;;;;;;;16.25;53.19;146250.42;1718312;82;21022;-59
2022/02/22 07:15:04;;;;;;;15.45;10.35;;;;;;;17.77;48.60;146624.84;1718192;82;21156;-58
2022/02/22 07:17:32;;;;;;;14.25;9.38;;;;;;;19.06;45.57;146941.69;1715169;83;20991;-62
2022/02/22 07:19:58;;;;;;;14.78;8.88;;;;;;;20.50;41.78;147297.88;1718115;82;21057;-60
2022/02/22 07:22:25;;;;;;;12.78;8.78;;;;;;;21.67;39.02;147586.20;1718345;82;21065;-63
2022/02/22 07:24:51;;;;;;;13.85;8.43;;;;;;;22.73;37.19;147848.16;1718257;83;21125;-63
2022/02/22 07:27:18;;;;;;;12.37;8.50;;;;;;;23.55;34.63;148052.00;1712400;83;21146;-63
2022/02/22 07:29:44;;;;;;;12.00;8.03;;;;;;;24.16;33.38;148201.53;1712394;84;21216;-59
2022/02/22 07:32:11;;;;;;;14.53;8.18;;;;;;;24.76;31.28;148351.09;1712386;82;21028;-58
2022/02/22 07:34:38;;;;;;;15.08;8.20;;;;;;;25.21;30.96;148462.66;1712223;84;21073;-64
2022/02/22 07:37:05;;;;;;;11.40;7.85;;;;;;;25.73;29.58;148592.00;1716694;83;21089;-64
2022/02/22 07:39:31;;;;;;;13.40;9.00;;;;;;;26.17;28.60;148699.86;1718126;83;21543;-58
2022/02/22 07:41:58;;;;;;;12.58;8.65;;;;;;;26.79;27.71;148853.41;1718446;83;21057;-60
2022/02/22 07:44:25;;;;;;;13.98;8.15;;;;;;;27.32;26.81;148984.20;1711194;83;21086;-66
2022/02/22 07:46:51;;;;;;;11.55;8.25;;;;;;;27.58;26.00;149050.25;1707773;82;21604;-62
2022/02/22 07:49:18;;;;;;;10.75;7.72;;;;;;;27.30;25.64;148980.42;1712115;82;21095;-60
2022/02/22 07:51:45;;;;;;;11.33;8.20;;;;;;;27.19;25.62;148953.72;1712411;82;21654;-59
2022/02/22 07:54:12;;;;;;;15.13;8.50;;;;;;;27.43;24.85;149013.41;1712151;82;21076;-61
2022/02/22 07:56:38;;;;;;;12.18;8.13;;;;;;;27.01;25.14;148908.00;1713639;83;21116;-62
2022/02/22 07:59:05;;;;;;;11.38;6.97;;;;;;;27.00;24.26;148906.73;1718284;82;21602;-62
2022/02/22 08:01:32;;;;;;;8.23;6.17;;;;;;;26.94;24.51;148890.22;1718344;82;21133;-58
2022/02/22 08:03:58;;;;;;;12.03;7.40;;;;;;;27.05;23.79;148918.17;1717719;82;21034;-58
2022/02/22 08:06:25;;;;;;;11.95;8.25;;;;;;;26.63;24.06;148815.34;1718076;83;21038;-61
2022/02/22 08:08:52;;;;;;;9.80;6.67;;;;;;;26.41;24.40;148759.50;1726720;81;21037;-64
2022/02/22 08:11:20;;;;;;;9.48;6.90;;;;;;;26.31;24.01;148735.39;1729996;81;21067;-60
2022/02/22 08:13:48;;;;;;;11.40;6.20;;;;;;;26.00;23.90;148657.98;1725489;83;21145;-60
2022/02/22 08:16:15;;;;;;;8.33;5.40;;;;;;;25.83;23.73;148614.84;1728749;82;21052;-62
2022/02/22 08:18:42;;;;;;;8.78;5.65;;;;;;;25.63;24.08;148566.66;1730967;81;21117;-60
2022/02/22 08:21:09;;;;;;;8.10;5.45;;;;;;;26.05;23.73;148670.67;1729518;83;21118;-59
2022/02/22 08:23:36;;;;;;;8.90;5.12;;;;;;;26.37;22.86;148749.34;1731138;83;22223;-62
2022/02/22 08:26:04;;;;;;;8.45;4.97;;;;;;;26.00;23.04;148657.98;1730926;83;21132;-58
2022/02/22 08:28:31;;;;;;;7.37;4.60;;;;;;;25.44;23.27;148518.44;1731161;82;21123;-58
2022/02/22 08:30:59;;;;;;;7.85;4.33;;;;;;;24.77;23.76;148352.36;1730851;82;21069;-61
2022/02/22 08:33:26;;;;;;;7.37;4.83;;;;;;;24.67;24.12;148329.53;1725653;83;21620;-56
2022/02/22 08:35:53;;;;;;;7.83;4.45;;;;;;;24.72;23.86;148339.69;1725566;83;21059;-60
2022/02/22 08:38:19;;;;;;;7.50;4.08;;;;;;;24.41;23.74;148263.61;1725696;82;21004;-58
2022/02/22 08:40:49;;;;;;;9.60;5.50;;;;;;;24.07;23.55;148178.70;1725606;83;21362;-61
2022/02/22 08:43:18;;;;;;;7.33;4.00;;;;;;;23.68;24.04;148083.66;1730354;83;21053;-62
2022/02/22 08:45:45;;;;;;;9.20;5.08;;;;;;;23.28;24.28;147984.92;1731072;83;21060;-59
2022/02/22 08:48:14;;;;;;;7.10;4.67;;;;;;;22.84;24.41;147874.72;1731273;81;21104;-59
2022/02/22 08:50:41;;;;;;;8.78;4.00;;;;;;;22.27;25.07;147734.27;1731203;83;22201;-58
2022/02/22 08:53:08;;;;;;;9.03;4.10;;;;;;;22.14;25.61;147702.59;1727493;82;21564;-57
2022/02/22 08:55:35;;;;;;;10.78;3.75;;;;;;;21.84;25.17;147629.22;1725839;83;21584;-58
2022/02/22 08:58:02;;;;;;;9.53;3.92;;;;;;;21.12;25.55;147449.63;1725523;83;21098;-62
2022/02/22 09:00:31;;;;;;;7.55;4.42;;;;;;;20.60;26.21;147321.94;1725581;83;21124;-62
2022/02/22 09:02:57;;;;;;;7.45;4.33;;;;;;;20.45;26.38;147285.22;1729872;83;21057;-59
2022/02/22 09:05:25;;;;;;;7.12;4.00;;;;;;;19.83;27.08;147131.12;1730478;81;21127;-57
2022/02/22 09:07:52;;;;;;;6.35;3.30;;;;;;;19.11;27.76;146954.30;1728250;81;21124;-60
2022/02/22 09:10:23;;;;;;;6.85;4.15;;;;;;;18.41;28.83;146782.58;1730536;83;21108;-65
2022/02/22 09:12:55;;;;;;;8.78;3.80;;;;;;;17.74;30.11;146616.05;1730366;82;21112;-64
2022/02/22 09:15:24;;;;;;;7.50;4.42;;;;;;;17.18;30.58;146478.59;1731310;83;21119;-64
2022/02/22 09:17:51;;;;;;;9.30;3.70;;;;;;;16.67;31.54;146352.52;1731218;83;21077;-56
2022/02/22 09:20:22;;;;;;;8.30;4.10;;;;;;;16.24;32.03;146247.94;1731231;83;21033;-58
2022/02/22 09:22:49;;;;;;;7.45;3.80;;;;;;;15.78;32.86;146134.58;1725963;83;21076;-57
2022/02/22 09:25:18;;;;;;;6.58;2.62;;;;;;;15.31;32.97;146017.41;1730054;81;21002;-58
2022/02/22 09:27:46;;;;;;;4.67;2.50;;;;;;;14.65;31.85;145855.06;1725961;83;21098;-56
2022/02/22 09:30:16;;;;;;;6.60;2.70;;;;;;;14.10;32.18;145720.42;1729534;83;21005;-55
2022/02/22 09:32:45;;;;;;;6.75;2.80;;;;;;;13.74;32.75;145632.41;1731171;83;21539;-58
2022/02/22 09:35:15;;;;;;;7.22;3.40;;;;;;;13.49;33.49;145570.80;1731354;82;21061;-61
2022/02/22 09:37:44;;;;;;;7.42;3.00;;;;;;;13.04;33.48;145460.13;1728757;82;21062;-57
2022/02/22 09:40:13;;;;;;;5.42;2.12;;;;;;;12.58;33.99;145348.28;1730242;83;21038;-60
2022/02/22 09:42:42;;;;;;;8.23;2.15;;;;;;;12.26;34.12;145269.19;1731001;81;21050;-62
2022/02/22 09:45:11;;;;;;;8.08;2.35;;;;;;;11.88;34.16;145176.25;1731182;83;21037;-60
2022/02/22 09:47:41;;;;;;;5.45;2.27;;;;;;;11.49;34.36;145080.77;1731126;81;21606;-58
2022/02/22 09:50:10;;;;;;;5.95;2.40;;;;;;;11.22;35.08;145013.00;1728027;82;21080;-57
2022/02/22 09:52:37;;;;;;;8.23;3.08;;;;;;;11.04;35.67;144970.37;1725636;82;21105;-58
2022/02/22 09:55:05;;;;;;;10.68;3.17;;;;;;;10.92;36.21;144939.00;1725473;83;21003;-57
2022/02/22 09:57:32;;;;;;;8.98;3.67;;;;;;;10.83;36.99;144917.66;1721590;83;21478;-58
2022/02/22 09:59:58;;;;;;;9.95;3.80;;;;;;;10.69;37.46;144883.80;1721444;83;21030;-57
2022/02/22 10:02:36;;;;;;;8.55;3.35;;;;;;;10.51;37.20;144838.66;1720991;83;21683;-57
2022/02/22 10:05:16;;;;;;;7.95;2.65;;;;;;;10.30;37.62;144787.22;1714985;83;21077;-55
2022/02/22 10:07:51;;;;;;;6.08;2.17;;;;;;;10.15;37.80;144750.78;1664126;85;21078;-61
2022/02/22 10:10:21;;;;;;;7.72;2.47;;;;;;;10.01;37.69;144716.97;1684600;84;21066;-58
2022/02/22 10:12:54;;;;;;;8.65;2.67;;;;;;;10.00;38.22;144714.47;1681612;84;21079;-60
2022/02/22 10:15:21;;;;;;;;;;;;;;;9.99;37.90;144711.94;1683879;83;21066;-57
2022/02/22 10:17:51;;;;;;;7.20;2.92;;;;;;;9.97;37.70;144706.91;1666428;85;20172;-64
2022/02/22 10:20:18;;;;;;;16.65;8.68;;;;;;;9.94;38.68;144699.39;1661127;85;21079;-62
2022/02/22 10:22:52;;;;;;;9.43;3.90;;;;;;;9.90;38.81;144690.64;1681515;84;22127;-57
2022/02/22 10:25:19;;;;;;;7.80;3.25;;;;;;;9.89;38.89;144686.86;1661612;85;21015;-63
2022/02/22 10:27:50;;;;;;;7.72;2.77;;;;;;;9.85;39.21;144676.86;1681822;84;21027;-57
2022/02/22 10:30:41;;;;;;;7.83;2.62;;;;;;;9.88;38.86;144684.38;1670924;85;21072;-64
2022/02/22 10:33:27;;;;;;;7.10;3.42;;;;;;;9.86;38.76;144680.59;1682584;84;21703;-54
2022/02/22 10:36:08;;;;;;;8.28;2.90;;;;;;;9.91;38.91;144693.13;1681012;84;21051;-58
2022/02/22 10:38:37;;;;;;;9.25;3.17;;;;;;;9.97;39.25;144706.91;1680382;85;21106;-59
2022/02/22 10:41:15;;;;;;;8.00;3.30;;;;;;;10.01;39.26;144716.97;1685595;83;21032;-60
2022/02/22 10:43:53;;;;;;;7.62;2.85;;;;;;;10.03;39.30;144720.73;1674194;85;21051;-59
2022/02/22 10:46:29;;;;;;;10.78;2.90;;;;;;;10.07;39.21;144730.73;1662633;85;21115;-57
2022/02/22 10:49:09;;;;;;;5.65;2.27;;;;;;;10.13;39.26;144747.06;1680807;84;21066;-58
2022/02/22 10:51:41;;;;;;;6.45;2.72;;;;;;;10.24;39.02;144772.12;1687185;85;21041;-55
2022/02/22 10:54:11;;;;;;;7.70;2.75;;;;;;;10.27;38.99;144779.64;1690841;85;21590;-57
2022/02/22 10:56:38;;;;;;;6.37;2.80;;;;;;;10.28;39.00;144782.19;1689983;84;22418;-58
2022/02/22 10:59:05;;;;;;;7.83;2.90;;;;;;;10.34;39.27;144797.25;1686104;85;21109;-55
2022/02/22 11:01:32;;;;;;;7.80;3.30;;;;;;;10.58;39.15;144856.19;1669445;85;21000;-57
2022/02/22 11:03:59;;;;;;;8.90;3.50;;;;;;;10.68;38.65;144880.02;1667020;85;21281;-59
2022/02/22 11:06:26;;;;;;;8.05;2.98;;;;;;;10.65;38.56;144875.00;1686419;85;21046;-58
2022/02/22 11:08:56;;;;;;;7.60;3.55;;;;;;;10.68;38.89;144880.02;1660262;86;21101;-56
2022/02/22 11:11:51;;;;;;;8.15;2.95;;;;;;;10.75;38.59;144898.83;1683883;85;21106;-57
2022/02/22 11:14:31;;;;;;;7.85;2.70;;;;;;;10.73;38.35;144892.56;1717397;83;21112;-61
2022/02/22 11:17:26;;;;;;;10.98;4.05;;;;;;;10.71;38.54;144887.53;1718032;82;21577;-61
2022/02/22 11:19:52;;;;;;;10.40;3.08;;;;;;;10.77;38.97;144903.86;1711698;83;21063;-60
2022/02/22 11:22:23;;;;;;;8.05;3.20;;;;;;;10.82;38.94;144915.16;1664419;84;21035;-59
2022/02/22 11:24:55;;;;;;;6.55;3.05;;;;;;;10.87;39.18;144927.70;1654617;85;21505;-61
2022/02/22 11:27:38;;;;;;;11.45;3.67;;;;;;;10.98;39.24;144955.28;1709614;83;21035;-59
2022/02/22 11:30:16;;;;;;;8.30;3.50;;;;;;;11.06;39.22;144975.34;1718116;82;21617;-61